Time;durP1;ratioP1;P1;durP2;ratioP2;P2;SDS_P1;SDS_P2;PMS_P1;PMS_P2;Temp;Humidity;BMP_temperature;BMP_pressure;BME280_temperature;BME280_humidity;BME280_pressure;Samples;Min_cycle;Max_cycle;Signal;HPM_P1;HPM_P2
2023/08/14 00:01:01;;;;;;;;;;;;;;;19.56;56.30;100575.66;4956047;28;6804;-74
2023/08/14 00:03:27;;;;;;;;;;;;;;;19.53;56.92;100574.75;4941121;28;6879;-76
2023/08/14 00:05:52;;;;;;;;;;;;;;;19.52;57.21;100576.47;4961798;28;6784;-74
2023/08/14 00:08:18;;;;;;;;;;;;;;;19.51;57.10;100579.94;4945162;28;6812;-76
2023/08/14 00:10:44;;;;;;;;;;;;;;;19.51;57.21;100579.94;4959661;28;6905;-73
2023/08/14 00:13:10;;;;;;;;;;;;;;;19.53;57.37;100577.34;4964462;28;6780;-74
2023/08/14 00:15:35;;;;;;;;;;;;;;;19.53;57.50;100575.63;4981576;28;6776;-74
2023/08/14 00:18:01;;;;;;;;;;;;;;;19.54;57.16;100566.97;4956992;28;6780;-73
2023/08/14 00:20:26;;;;;;;;;;;;;;;19.55;57.59;100571.31;4973957;28;6856;-74
2023/08/14 00:22:52;;;;;;;;;;;;;;;19.55;57.59;100573.03;4963611;28;6952;-74
2023/08/14 00:25:17;;;;;;;;;;;;;;;19.55;57.50;100563.50;4976274;28;6980;-75
2023/08/14 00:27:42;;;;;;;;;;;;;;;19.55;57.62;100565.22;4945812;28;6772;-74
2023/08/14 00:30:08;;;;;;;;;;;;;;;19.53;57.45;100557.44;4953988;28;7087;-73
2023/08/14 00:32:33;;;;;;;;;;;;;;;19.53;57.33;100561.75;4946988;28;6776;-73
2023/08/14 00:34:59;;;;;;;;;;;;;;;19.49;57.04;100562.56;4938617;28;7075;-74
2023/08/14 00:37:42;;;;;;;;;;;;;;;19.43;57.12;100560.75;4955932;28;6964;-72
2023/08/14 00:40:10;;;;;;;;;;;;;;;19.39;57.18;100567.63;4962174;28;7240;-72
2023/08/14 00:42:36;;;;;;;;;;;;;;;19.34;57.80;100566.69;4939650;28;7252;-72
2023/08/14 00:45:02;;;;;;;;;;;;;;;19.29;57.46;100569.22;4978837;28;7321;-73
2023/08/14 00:47:28;;;;;;;;;;;;;;;19.25;57.93;100566.53;4978004;28;6804;-72
2023/08/14 00:49:53;;;;;;;;;;;;;;;19.22;57.95;100571.69;4974426;28;7298;-71
2023/08/14 00:52:19;;;;;;;;;;;;;;;19.18;57.85;100570.78;4972725;28;6859;-71
2023/08/14 00:54:44;;;;;;;;;;;;;;;19.13;57.31;100564.66;4970377;28;6871;-71
2023/08/14 00:57:10;;;;;;;;;;;;;;;19.10;57.97;100564.59;4970744;28;6791;-72
2023/08/14 00:59:35;;;;;;;;;;;;;;;19.09;57.84;100560.25;4970872;28;6864;-72
2023/08/14 01:02:02;;;;;;;;;;;;;;;19.06;58.27;100560.22;4939223;28;6792;-73
2023/08/14 01:04:27;;;;;;;;;;;;;;;19.06;58.25;100555.88;4958509;28;6792;-71
2023/08/14 01:06:53;;;;;;;;;;;;;;;19.05;58.28;100556.72;4974046;28;6811;-72
2023/08/14 01:09:18;;;;;;;;;;;;;;;19.03;58.08;100548.03;4972618;28;6792;-72
2023/08/14 01:12:09;;;;;;;;;;;;;;;19.04;58.55;100546.34;4957176;28;6788;-72
2023/08/14 01:14:36;;;;;;;;;;;;;;;19.03;57.96;100545.44;4975813;28;7285;-72
2023/08/14 01:17:07;;;;;;;;;;;;;;;19.04;57.98;100538.53;4976727;28;7044;-71
2023/08/14 01:19:35;;;;;;;;;;;;;;;19.02;57.96;100538.50;4962920;28;7114;-72
2023/08/14 01:22:10;;;;;;;;;;;;;;;18.99;58.04;100539.28;4951379;28;6973;-72
2023/08/14 01:24:52;;;;;;;;;;;;;;;18.94;58.23;100535.75;4958468;28;6866;-71
2023/08/14 01:27:19;;;;;;;;;;;;;;;18.90;58.43;100528.75;4972561;28;6804;-72
2023/08/14 01:29:54;;;;;;;;;;;;;;;18.88;58.68;100528.75;4962702;28;6998;-71
2023/08/14 01:32:20;;;;;;;;;;;;;;;18.88;58.57;100526.16;4974191;28;6808;-71
2023/08/14 01:34:45;;;;;;;;;;;;;;;18.90;58.72;100523.56;4975005;28;6803;-72
2023/08/14 01:37:24;;;;;;;;;;;;;;;18.94;59.14;100521.91;4959591;28;6795;-71
2023/08/14 01:40:06;;;;;;;;;;;;;;;18.96;58.47;100509.81;4973534;28;6808;-71
2023/08/14 01:42:37;;;;;;;;;;;;;;;18.96;58.47;100504.59;4954864;28;7789;-71
2023/08/14 01:45:09;;;;;;;;;;;;;;;18.96;58.25;100510.69;4977768;28;7269;-71
2023/08/14 01:47:37;;;;;;;;;;;;;;;18.95;58.45;100506.34;4953014;28;6816;-71
2023/08/14 01:50:04;;;;;;;;;;;;;;;18.94;58.72;100499.41;4976193;28;6804;-71
2023/08/14 01:52:30;;;;;;;;;;;;;;;18.95;58.74;100492.47;4945837;28;6820;-72
2023/08/14 01:55:00;;;;;;;;;;;;;;;18.94;58.75;100482.94;4974228;28;6816;-72
2023/08/14 01:57:26;;;;;;;;;;;;;;;18.90;58.72;100484.63;4943362;28;7003;-72
2023/08/14 01:59:51;;;;;;;;;;;;;;;18.87;58.99;100490.63;4939527;28;7294;-72
2023/08/14 02:02:17;;;;;;;;;;;;;;;18.84;58.38;100489.72;4970352;28;6863;-72
2023/08/14 02:04:42;;;;;;;;;;;;;;;18.79;58.54;100491.38;4965639;28;6851;-72
2023/08/14 02:07:10;;;;;;;;;;;;;;;18.77;58.76;100493.06;4975863;28;7640;-72
2023/08/14 02:09:36;;;;;;;;;;;;;;;18.73;59.09;100495.63;4962155;28;6816;-72
2023/08/14 02:12:02;;;;;;;;;;;;;;;18.69;59.20;100495.56;4959536;28;9342;-72
2023/08/14 02:14:27;;;;;;;;;;;;;;;18.66;59.04;100490.31;4978995;28;7122;-73
2023/08/14 02:16:53;;;;;;;;;;;;;;;18.59;59.04;100492.81;4951678;28;7302;-73
2023/08/14 02:19:18;;;;;;;;;;;;;;;18.56;58.85;100495.34;4948679;28;9706;-73
2023/08/14 02:21:44;;;;;;;;;;;;;;;18.52;58.88;100495.25;4980574;28;6780;-74
2023/08/14 02:24:10;;;;;;;;;;;;;;;18.47;58.25;100492.59;4981141;28;7046;-73
2023/08/14 02:26:35;;;;;;;;;;;;;;;18.41;59.11;100493.34;4975969;28;6804;-74
2023/08/14 02:29:01;;;;;;;;;;;;;;;18.38;59.19;100482.06;4964929;28;7234;-73
2023/08/14 02:31:26;;;;;;;;;;;;;;;18.34;59.00;100486.31;4963029;28;7118;-74
2023/08/14 02:33:59;;;;;;;;;;;;;;;18.30;59.16;100481.94;4976663;28;6787;-73
2023/08/14 02:36:26;;;;;;;;;;;;;;;18.24;59.07;100485.28;4980497;28;6807;-73
2023/08/14 02:38:53;;;;;;;;;;;;;;;18.21;59.83;100486.94;4981611;28;6788;-73
2023/08/14 02:41:18;;;;;;;;;;;;;;;18.16;59.77;100479.97;4976406;28;7130;-74
2023/08/14 02:43:44;;;;;;;;;;;;;;;18.12;59.12;100480.75;4947699;28;6795;-74
2023/08/14 02:46:09;;;;;;;;;;;;;;;18.08;59.18;100473.78;4962418;28;7107;-74
2023/08/14 02:48:35;;;;;;;;;;;;;;;18.04;59.59;100472.84;4961225;28;7080;-73
2023/08/14 02:51:01;;;;;;;;;;;;;;;18.03;59.85;100480.53;4983156;28;6799;-73
2023/08/14 02:53:26;;;;;;;;;;;;;;;17.98;60.12;100479.59;4948492;28;6954;-73
2023/08/14 02:55:52;;;;;;;;;;;;;;;17.96;60.20;100478.66;4963252;28;6967;-74
2023/08/14 02:58:18;;;;;;;;;;;;;;;17.95;60.36;100476.94;4979534;28;7167;-73
2023/08/14 03:00:48;;;;;;;;;;;;;;;17.94;60.42;100475.19;4962567;28;6800;-73
2023/08/14 03:03:13;;;;;;;;;;;;;;;17.96;60.04;100474.38;4964140;28;6800;-74
2023/08/14 03:05:39;;;;;;;;;;;;;;;17.96;60.00;100478.66;4962531;28;7214;-73
2023/08/14 03:08:05;;;;;;;;;;;;;;;17.94;60.63;100472.59;4958324;28;6929;-73
2023/08/14 03:10:30;;;;;;;;;;;;;;;17.94;60.41;100470.00;4942229;28;8306;-74
2023/08/14 03:12:56;;;;;;;;;;;;;;;17.95;60.63;100474.34;4943583;28;6784;-73
2023/08/14 03:15:22;;;;;;;;;;;;;;;17.96;61.02;100473.50;4975207;28;7201;-72
2023/08/14 03:17:48;;;;;;;;;;;;;;;17.99;60.82;100478.75;4943414;28;6784;-71
2023/08/14 03:20:14;;;;;;;;;;;;;;;18.00;60.75;100465.78;4972400;28;6836;-72
2023/08/14 03:22:39;;;;;;;;;;;;;;;18.02;60.78;100468.44;4955143;28;6852;-72
2023/08/14 03:25:05;;;;;;;;;;;;;;;18.03;60.34;100464.97;4956303;28;6804;-72
2023/08/14 03:27:31;;;;;;;;;;;;;;;18.03;60.92;100470.16;4977584;28;6787;-71
2023/08/14 03:29:56;;;;;;;;;;;;;;;18.00;60.44;100463.19;4965328;28;6784;-71
2023/08/14 03:32:22;;;;;;;;;;;;;;;17.99;60.05;100460.59;4959163;28;6784;-71
2023/08/14 03:34:47;;;;;;;;;;;;;;;17.95;60.63;100461.38;4978259;28;6776;-72
2023/08/14 03:37:13;;;;;;;;;;;;;;;17.93;60.50;100460.47;4957047;28;7242;-71
2023/08/14 03:39:38;;;;;;;;;;;;;;;17.89;60.74;100464.72;4974441;28;6779;-71
2023/08/14 03:42:04;;;;;;;;;;;;;;;17.87;60.90;100459.53;4937334;28;7025;-71
2023/08/14 03:44:29;;;;;;;;;;;;;;;17.84;60.31;100448.22;4946426;28;6784;-72
2023/08/14 03:46:55;;;;;;;;;;;;;;;17.80;60.08;100457.66;4954683;28;6994;-71
2023/08/14 03:49:20;;;;;;;;;;;;;;;17.76;60.03;100464.50;4941447;28;7226;-71
2023/08/14 03:51:46;;;;;;;;;;;;;;;17.71;60.48;100465.25;4969395;28;6787;-71
2023/08/14 03:54:11;;;;;;;;;;;;;;;17.68;60.48;100475.56;4957770;28;6796;-71
2023/08/14 03:56:37;;;;;;;;;;;;;;;17.65;60.39;100478.09;4960796;28;6941;-71
2023/08/14 03:59:03;;;;;;;;;;;;;;;17.62;60.93;100474.59;4961317;28;7905;-71
2023/08/14 04:01:28;;;;;;;;;;;;;;;17.62;60.70;100478.88;4954618;28;8537;-72
2023/08/14 04:03:54;;;;;;;;;;;;;;;17.60;60.98;100473.69;4956737;28;7752;-72
2023/08/14 04:06:19;;;;;;;;;;;;;;;17.62;61.23;100471.09;4955374;28;6835;-71
2023/08/14 04:08:45;;;;;;;;;;;;;;;17.63;61.09;100463.38;4968067;28;7187;-71
2023/08/14 04:11:11;;;;;;;;;;;;;;;17.66;61.47;100459.09;4957418;28;6793;-72
2023/08/14 04:13:36;;;;;;;;;;;;;;;17.67;61.09;100460.84;4977042;28;6990;-71
2023/08/14 04:16:03;;;;;;;;;;;;;;;17.67;61.14;100455.66;4978688;28;6768;-71
2023/08/14 04:18:32;;;;;;;;;;;;;;;17.65;61.15;100460.81;4940028;28;7128;-72
2023/08/14 04:20:58;;;;;;;;;;;;;;;17.63;60.38;100459.94;4960815;28;6923;-72
2023/08/14 04:23:25;;;;;;;;;;;;;;;17.60;59.99;100467.63;4973256;28;6796;-71
2023/08/14 04:25:51;;;;;;;;;;;;;;;17.54;60.37;100459.75;4956270;28;6808;-72
2023/08/14 04:28:17;;;;;;;;;;;;;;;17.52;60.46;100448.44;4958812;28;6838;-71
2023/08/14 04:30:42;;;;;;;;;;;;;;;17.47;60.78;100448.34;4961883;28;7024;-71
2023/08/14 04:33:08;;;;;;;;;;;;;;;17.45;60.54;100450.06;4977864;28;7209;-71
2023/08/14 04:35:34;;;;;;;;;;;;;;;17.42;60.92;100447.41;4955079;28;7405;-70
2023/08/14 04:37:59;;;;;;;;;;;;;;;17.42;61.07;100437.03;4957123;28;7251;-71
2023/08/14 04:40:25;;;;;;;;;;;;;;;17.44;61.33;100443.13;4977473;28;7308;-71
2023/08/14 04:42:50;;;;;;;;;;;;;;;17.46;61.76;100436.25;4937553;28;7241;-71
2023/08/14 04:45:15;;;;;;;;;;;;;;;17.52;61.31;100440.69;4978842;28;7187;-71
2023/08/14 04:47:41;;;;;;;;;;;;;;;17.55;61.95;100449.38;4955304;28;7248;-72
2023/08/14 04:50:07;;;;;;;;;;;;;;;17.59;61.79;100446.03;4964812;28;7376;-72
2023/08/14 04:52:32;;;;;;;;;;;;;;;17.65;61.72;100441.81;4960534;28;7612;-71
2023/08/14 04:54:58;;;;;;;;;;;;;;;17.70;61.93;100435.00;4959162;28;6783;-72
2023/08/14 04:57:23;;;;;;;;;;;;;;;17.74;61.79;100439.38;4940110;28;7035;-70
2023/08/14 04:59:49;;;;;;;;;;;;;;;17.81;61.56;100433.47;4939976;28;7311;-71
2023/08/14 05:02:14;;;;;;;;;;;;;;;17.89;61.82;100431.91;4976009;28;6851;-72
2023/08/14 05:04:39;;;;;;;;;;;;;;;18.01;62.45;100426.09;4970026;28;6796;-71
2023/08/14 05:07:05;;;;;;;;;;;;;;;18.22;63.09;100416.94;4958129;28;7257;-71
2023/08/14 05:09:30;;;;;;;;;;;;;;;18.52;63.57;100420.00;4954268;28;7220;-71
2023/08/14 05:11:58;;;;;;;;;;;;;;;18.90;64.21;100419.69;4961293;28;7225;-71
2023/08/14 05:14:23;;;;;;;;;;;;;;;19.30;64.83;100424.59;4977748;28;6812;-70
2023/08/14 05:16:49;;;;;;;;;;;;;;;19.73;64.74;100410.31;4926883;28;7027;-72
2023/08/14 05:19:14;;;;;;;;;;;;;;;20.18;64.19;100406.47;4973251;28;6855;-71
2023/08/14 05:21:40;;;;;;;;;;;;;;;20.59;63.56;100418.06;4960494;28;6873;-74
2023/08/14 05:24:05;;;;;;;;;;;;;;;20.92;62.40;100421.75;4955624;28;6792;-76
2023/08/14 05:26:31;;;;;;;;;;;;;;;21.18;61.27;100423.63;4979859;28;7187;-75
2023/08/14 05:28:56;;;;;;;;;;;;;;;21.42;60.79;100421.97;4971876;28;7115;-75
2023/08/14 05:31:22;;;;;;;;;;;;;;;21.64;60.36;100422.06;4975190;28;6775;-76
2023/08/14 05:33:47;;;;;;;;;;;;;;;21.87;59.43;100422.09;4959068;28;7943;-76
2023/08/14 05:36:13;;;;;;;;;;;;;;;22.03;58.46;100415.19;4979460;28;6868;-75
2023/08/14 05:38:38;;;;;;;;;;;;;;;22.13;57.84;100421.28;4964547;28;7753;-74
2023/08/14 05:41:04;;;;;;;;;;;;;;;22.20;57.25;100423.03;4959550;28;7184;-73
2023/08/14 05:43:29;;;;;;;;;;;;;;;22.26;56.58;100419.53;4962049;28;6996;-74
2023/08/14 05:45:55;;;;;;;;;;;;;;;22.31;57.00;100409.09;4965533;28;6844;-75
2023/08/14 05:48:21;;;;;;;;;;;;;;;22.36;56.32;100411.72;4966973;28;6788;-75
2023/08/14 05:50:49;;;;;;;;;;;;;;;22.38;55.71;100416.06;4980091;28;7325;-73
2023/08/14 05:53:14;;;;;;;;;;;;;;;22.39;55.87;100415.19;4978698;28;7011;-73
2023/08/14 05:55:41;;;;;;;;;;;;;;;22.41;55.43;100409.97;4964277;28;7015;-75
2023/08/14 05:58:07;;;;;;;;;;;;;;;22.42;55.71;100409.97;4966333;28;6990;-75
2023/08/14 06:00:37;;;;;;;;;;;;;;;22.44;55.59;100412.56;4927292;28;6979;-75
2023/08/14 06:03:04;;;;;;;;;;;;;;;22.49;55.77;100413.47;4964781;28;7269;-75
2023/08/14 06:05:29;;;;;;;;;;;;;;;22.53;56.03;100420.44;4963085;28;7013;-74
2023/08/14 06:07:55;;;;;;;;;;;;;;;22.57;55.49;100431.75;4966308;28;6944;-76
2023/08/14 06:10:22;;;;;;;;;;;;;;;22.54;54.94;100435.22;4978446;28;7291;-75
2023/08/14 06:12:50;;;;;;;;;;;;;;;22.46;55.35;100431.72;4981028;28;7058;-73
2023/08/14 06:15:21;;;;;;;;;;;;;;;22.41;55.13;100436.09;4982745;28;7232;-75
2023/08/14 06:17:49;;;;;;;;;;;;;;;22.40;55.04;100434.31;4946465;28;6811;-75
2023/08/14 06:20:15;;;;;;;;;;;;;;;22.42;54.87;100449.13;4979732;28;6943;-75
2023/08/14 06:22:46;;;;;;;;;;;;;;;22.43;55.01;100450.00;4966208;28;6804;-74
2023/08/14 06:25:13;;;;;;;;;;;;;;;22.44;55.46;100444.75;4977260;28;7228;-74
2023/08/14 06:27:39;;;;;;;;;;;;;;;22.48;55.41;100443.91;4965412;28;7179;-74
2023/08/14 06:30:09;;;;;;;;;;;;;;;22.50;55.34;100446.53;4980969;28;6867;-75
2023/08/14 06:32:35;;;;;;;;;;;;;;;22.55;55.81;100439.56;4965177;28;7063;-75
2023/08/14 06:35:00;;;;;;;;;;;;;;;22.65;55.71;100439.56;4961849;28;7217;-74
2023/08/14 06:37:26;;;;;;;;;;;;;;;22.77;55.88;100439.53;4964236;28;6870;-73
2023/08/14 06:39:51;;;;;;;;;;;;;;;22.86;55.16;100434.28;4948118;28;6860;-76
2023/08/14 06:42:17;;;;;;;;;;;;;;;22.93;55.31;100423.84;4961543;28;6888;-75
2023/08/14 06:44:42;;;;;;;;;;;;;;;22.99;55.58;100434.28;4976669;28;6851;-75
2023/08/14 06:47:08;;;;;;;;;;;;;;;23.06;55.23;100435.97;4966376;28;7392;-74
2023/08/14 06:49:33;;;;;;;;;;;;;;;23.13;55.28;100431.59;4942896;28;6830;-74
2023/08/14 06:52:00;;;;;;;;;;;;;;;23.22;55.33;100442.03;4963999;28;6872;-75
2023/08/14 06:54:26;;;;;;;;;;;;;;;23.29;54.74;100442.91;4964006;28;7483;-75
2023/08/14 06:56:51;;;;;;;;;;;;;;;23.35;55.31;100429.81;4967569;28;6803;-73
2023/08/14 06:59:17;;;;;;;;;;;;;;;23.45;54.72;100428.03;4973783;28;8539;-72
2023/08/14 07:01:42;;;;;;;;;;;;;;;23.53;54.44;100420.13;4984263;28;6833;-73
2023/08/14 07:04:08;;;;;;;;;;;;;;;23.62;54.52;100412.22;4946791;28;6780;-75
2023/08/14 07:06:33;;;;;;;;;;;;;;;23.71;54.30;100406.94;4964808;28;7363;-75
2023/08/14 07:09:00;;;;;;;;;;;;;;;23.79;54.11;100406.88;4981631;28;6851;-74
2023/08/14 07:11:25;;;;;;;;;;;;;;;23.89;54.05;100410.31;4945208;28;7179;-75
2023/08/14 07:13:51;;;;;;;;;;;;;;;23.96;54.78;100401.56;4968658;28;6775;-74
2023/08/14 07:16:16;;;;;;;;;;;;;;;24.02;54.16;100398.03;4963887;28;6993;-75
2023/08/14 07:18:42;;;;;;;;;;;;;;;24.06;53.59;100388.44;4949385;28;6836;-75
2023/08/14 07:21:07;;;;;;;;;;;;;;;24.08;54.24;100395.38;4948388;28;6956;-74
2023/08/14 07:23:33;;;;;;;;;;;;;;;24.14;53.75;100389.19;4954282;28;7036;-76
2023/08/14 07:26:03;;;;;;;;;;;;;;;24.22;53.97;100395.25;4976757;28;7014;-72
2023/08/14 07:28:29;;;;;;;;;;;;;;;24.37;53.72;100402.09;5006829;28;6831;-72
2023/08/14 07:30:54;;;;;;;;;;;;;;;24.57;53.50;100410.66;4962853;28;7096;-76
2023/08/14 07:33:20;;;;;;;;;;;;;;;24.72;52.95;100417.50;4947674;28;6995;-75
2023/08/14 07:35:45;;;;;;;;;;;;;;;24.86;52.62;100409.53;4966347;28;6807;-75
2023/08/14 07:38:12;;;;;;;;;;;;;;;24.98;51.56;100398.03;4962305;28;6943;-73
2023/08/14 07:40:38;;;;;;;;;;;;;;;25.06;51.54;100394.41;4976010;28;6871;-76
2023/08/14 07:43:04;;;;;;;;;;;;;;;25.13;51.34;100399.59;4949346;28;6819;-75
2023/08/14 07:45:29;;;;;;;;;;;;;;;25.16;50.79;100407.41;4977880;28;6791;-74
2023/08/14 07:47:55;;;;;;;;;;;;;;;25.17;50.58;100414.41;4957994;28;6941;-76
2023/08/14 07:50:20;;;;;;;;;;;;;;;25.22;50.64;100407.34;4979651;28;7003;-75
2023/08/14 07:52:45;;;;;;;;;;;;;;;25.25;50.12;100415.16;4980642;28;6795;-75
2023/08/14 07:55:11;;;;;;;;;;;;;;;25.33;50.04;100417.69;4963665;28;6864;-75
2023/08/14 07:57:36;;;;;;;;;;;;;;;25.38;49.59;100423.75;4944325;28;7228;-75
2023/08/14 08:00:07;;;;;;;;;;;;;;;25.45;49.83;100421.91;4964248;28;7192;-75
2023/08/14 08:02:32;;;;;;;;;;;;;;;25.54;49.52;100416.56;4946617;28;7371;-75
2023/08/14 08:04:58;;;;;;;;;;;;;;;25.62;49.00;100417.31;4946163;28;6776;-75
2023/08/14 08:07:23;;;;;;;;;;;;;;;25.71;49.32;100424.19;4942834;28;7082;-75
2023/08/14 08:09:49;;;;;;;;;;;;;;;25.77;48.77;100421.47;4944216;28;8161;-75
2023/08/14 08:12:15;;;;;;;;;;;;;;;25.85;48.48;100426.59;4980209;28;7384;-75
2023/08/14 08:14:40;;;;;;;;;;;;;;;25.90;48.20;100426.53;4962803;28;6772;-76
2023/08/14 08:17:06;;;;;;;;;;;;;;;25.91;48.10;100423.91;4982074;28;6788;-74
2023/08/14 08:19:31;;;;;;;;;;;;;;;25.91;47.28;100425.66;4963630;28;6780;-75
2023/08/14 08:21:57;;;;;;;;;;;;;;;25.90;47.37;100435.28;4959005;28;7250;-75
2023/08/14 08:24:22;;;;;;;;;;;;;;;25.92;47.89;100432.63;4966315;28;6776;-74
2023/08/14 08:26:48;;;;;;;;;;;;;;;25.95;47.72;100429.09;4976472;28;6779;-75
2023/08/14 08:29:14;;;;;;;;;;;;;;;26.03;47.64;100432.47;4959692;28;6943;-75
2023/08/14 08:31:40;;;;;;;;;;;;;;;26.09;47.63;100432.38;4958420;28;7380;-75
2023/08/14 08:34:05;;;;;;;;;;;;;;;26.16;47.45;100425.25;4976569;28;7158;-73
2023/08/14 08:36:31;;;;;;;;;;;;;;;26.25;47.12;100419.91;4977265;28;6788;-75
2023/08/14 08:38:56;;;;;;;;;;;;;;;26.33;46.98;100418.00;4963756;28;7128;-73
2023/08/14 08:41:35;;;;;;;;;;;;;;;26.45;46.59;100416.06;4945502;28;7309;-76
2023/08/14 08:44:10;;;;;;;;;;;;;;;26.57;46.18;100414.97;4948509;28;7008;-75
2023/08/14 08:46:37;;;;;;;;;;;;;;;26.64;45.90;100407.84;4955070;28;6975;-74
2023/08/14 08:49:04;;;;;;;;;;;;;;;26.72;45.80;100404.16;4956583;28;6823;-73
2023/08/14 08:51:33;;;;;;;;;;;;;;;26.85;45.93;100404.78;4938887;28;6884;-75
2023/08/14 08:53:59;;;;;;;;;;;;;;;26.99;46.07;100409.78;4973709;28;6812;-74
2023/08/14 08:56:25;;;;;;;;;;;;;;;27.16;44.71;100417.31;4972281;28;6795;-74
2023/08/14 08:58:52;;;;;;;;;;;;;;;27.30;44.17;100422.31;4977500;28;6820;-74
2023/08/14 09:01:18;;;;;;;;;;;;;;;27.43;43.59;100424.69;4940970;28;6879;-75
2023/08/14 09:03:45;;;;;;;;;;;;;;;27.53;44.01;100412.19;4957936;28;7398;-73
2023/08/14 09:06:10;;;;;;;;;;;;;;;27.62;43.68;100406.72;4973354;28;6879;-73
2023/08/14 09:08:36;;;;;;;;;;;;;;;27.76;43.14;100414.31;4947450;28;6954;-71
2023/08/14 09:11:01;;;;;;;;;;;;;;;27.95;43.33;100408.59;4960623;28;7789;-73
2023/08/14 09:13:27;;;;;;;;;;;;;;;28.14;43.33;100409.88;4944422;28;6958;-73
2023/08/14 09:15:53;;;;;;;;;;;;;;;28.37;43.00;100405.81;4960988;28;7162;-74
2023/08/14 09:18:18;;;;;;;;;;;;;;;28.76;41.92;100403.91;4938871;28;6837;-75
2023/08/14 09:20:44;;;;;;;;;;;;;;;29.50;41.40;100409.72;4962088;28;7111;-76
2023/08/14 09:23:12;;;;;;;;;;;;;;;30.23;39.77;100408.31;4960011;28;6990;-74
2023/08/14 09:25:40;;;;;;;;;;;;;;;30.39;38.71;100403.34;4962430;28;6808;-73
2023/08/14 09:28:07;;;;;;;;;;;;;;;30.30;38.16;100400.13;4978994;28;6800;-72
2023/08/14 09:30:35;;;;;;;;;;;;;;;30.17;38.33;100391.75;4936495;28;7332;-71
2023/08/14 09:33:00;;;;;;;;;;;;;;;30.20;38.69;100394.31;4960399;28;7259;-73
2023/08/14 09:35:26;;;;;;;;;;;;;;;30.83;38.66;100387.72;4943531;28;7132;-72
2023/08/14 09:37:51;;;;;;;;;;;;;;;31.77;38.20;100384.13;4957373;28;6997;-73
2023/08/14 09:40:17;;;;;;;;;;;;;;;32.90;37.43;100383.75;4979236;28;7228;-71
2023/08/14 09:42:44;;;;;;;;;;;;;;;34.06;36.61;100374.72;4974420;28;7014;-72
2023/08/14 09:45:11;;;;;;;;;;;;;;;35.13;34.79;100381.56;4961080;28;7012;-71
2023/08/14 09:47:36;;;;;;;;;;;;;;;35.83;33.13;100365.16;4941269;28;6874;-73
2023/08/14 09:50:02;;;;;;;;;;;;;;;36.41;32.42;100359.94;4961995;28;6864;-72
2023/08/14 09:52:27;;;;;;;;;;;;;;;36.94;31.04;100362.00;4976476;28;6787;-71
2023/08/14 09:54:54;;;;;;;;;;;;;;;37.38;30.52;100361.94;4976963;28;6803;-73
2023/08/14 09:57:23;;;;;;;;;;;;;;;37.76;30.18;100355.88;4962884;28;7236;-73
2023/08/14 09:59:49;;;;;;;;;;;;;;;38.19;29.06;100362.75;4976559;28;6800;-74
2023/08/14 10:02:17;;;;;;;;;;;;;;;38.54;28.66;100353.28;4973968;28;6792;-73
2023/08/14 10:04:46;;;;;;;;;;;;;;;38.87;28.10;100353.59;4973165;28;6996;-71
2023/08/14 10:07:14;;;;;;;;;;;;;;;39.25;27.58;100359.84;4946039;28;6824;-74
2023/08/14 10:09:50;;;;;;;;;;;;;;;39.51;26.28;100354.38;4962442;28;6965;-73
2023/08/14 10:12:18;;;;;;;;;;;;;;;39.52;25.98;100356.09;4966428;28;7125;-73
2023/08/14 10:14:50;;;;;;;;;;;;;;;39.65;26.51;100356.00;4981531;28;6808;-73
2023/08/14 10:17:23;;;;;;;;;;;;;;;39.91;25.81;100355.84;4963307;28;6900;-72
2023/08/14 10:19:52;;;;;;;;;;;;;;;40.22;25.43;100357.00;4980642;28;6876;-73
2023/08/14 10:22:19;;;;;;;;;;;;;;;40.52;25.33;100360.09;4948669;28;7035;-72
2023/08/14 10:24:45;;;;;;;;;;;;;;;40.79;24.86;100357.03;4963988;28;7335;-73
2023/08/14 10:27:11;;;;;;;;;;;;;;;41.02;24.75;100356.97;4945366;28;6800;-72
2023/08/14 10:29:37;;;;;;;;;;;;;;;41.28;23.55;100355.81;4979205;28;6784;-73
2023/08/14 10:32:04;;;;;;;;;;;;;;;41.27;23.10;100357.69;4945363;28;7274;-72
2023/08/14 10:34:31;;;;;;;;;;;;;;;41.36;23.48;100346.16;4947828;28;7075;-73
2023/08/14 10:36:57;;;;;;;;;;;;;;;41.34;23.34;100350.81;4961750;28;7031;-74
2023/08/14 10:39:35;;;;;;;;;;;;;;;41.19;22.51;100338.63;4977748;28;7716;-74
2023/08/14 10:42:03;;;;;;;;;;;;;;;41.22;23.29;100347.31;4981300;28;6800;-73
2023/08/14 10:44:35;;;;;;;;;;;;;;;41.34;22.76;100344.56;4979806;28;6792;-73
2023/08/14 10:47:07;;;;;;;;;;;;;;;41.35;22.16;100336.38;4965332;28;7087;-73
2023/08/14 10:49:43;;;;;;;;;;;;;;;41.50;22.29;100338.75;4960748;28;6803;-71
2023/08/14 10:52:13;;;;;;;;;;;;;;;41.73;22.22;100336.00;4978983;28;6859;-73
2023/08/14 10:54:39;;;;;;;;;;;;;;;41.95;22.01;100336.81;4963697;28;6875;-73
2023/08/14 10:57:10;;;;;;;;;;;;;;;42.02;21.52;100333.44;4966222;28;7363;-74
2023/08/14 10:59:36;;;;;;;;;;;;;;;41.87;21.37;100345.56;4964485;28;7654;-74
2023/08/14 11:02:12;;;;;;;;;;;;;;;41.55;21.49;100347.28;4978314;28;6900;-73
2023/08/14 11:05:01;;;;;;;;;;;;;;;41.12;21.65;100351.72;4946361;28;6816;-73
2023/08/14 11:07:35;;;;;;;;;;;;;;;40.85;21.88;100344.06;4980041;28;6816;-72
2023/08/14 11:10:05;;;;;;;;;;;;;;;40.59;22.11;100333.59;4963760;28;6821;-74
2023/08/14 11:12:31;;;;;;;;;;;;;;;40.43;22.07;100334.81;4942478;28;6812;-73
2023/08/14 11:14:57;;;;;;;;;;;;;;;40.36;22.60;100330.91;4965894;28;6860;-74
2023/08/14 11:17:24;;;;;;;;;;;;;;;40.51;22.93;100332.38;4978381;28;6768;-74
2023/08/14 11:19:50;;;;;;;;;;;;;;;40.82;22.75;100324.56;4943765;28;7000;-73
2023/08/14 11:22:15;;;;;;;;;;;;;;;40.96;22.56;100325.25;4975397;28;6906;-74
2023/08/14 11:24:41;;;;;;;;;;;;;;;41.15;22.54;100323.75;4943503;28;6786;-74
2023/08/14 11:27:07;;;;;;;;;;;;;;;41.27;22.62;100328.13;4963873;28;7585;-72
2023/08/14 11:29:34;;;;;;;;;;;;;;;41.34;22.67;100333.81;4958815;28;6947;-72
2023/08/14 11:32:00;;;;;;;;;;;;;;;41.42;22.39;100327.78;4943992;28;7067;-71
2023/08/14 11:34:26;;;;;;;;;;;;;;;41.47;22.58;100328.25;4978104;28;6784;-74
2023/08/14 11:36:56;;;;;;;;;;;;;;;41.46;22.28;100323.88;4964867;28;7273;-73
2023/08/14 11:39:22;;;;;;;;;;;;;;;41.29;22.82;100318.06;4974083;28;6863;-74
2023/08/14 11:41:47;;;;;;;;;;;;;;;41.18;22.69;100315.41;4980120;28;6796;-72
2023/08/14 11:44:13;;;;;;;;;;;;;;;41.02;23.13;100313.16;4966803;28;6950;-72
2023/08/14 11:46:38;;;;;;;;;;;;;;;41.00;23.25;100304.34;4965604;28;7203;-74
2023/08/14 11:49:05;;;;;;;;;;;;;;;40.98;23.56;100307.19;4948971;28;6792;-73
2023/08/14 11:51:31;;;;;;;;;;;;;;;40.89;22.85;100306.09;4954732;28;7507;-72
2023/08/14 11:53:58;;;;;;;;;;;;;;;40.84;23.26;100313.69;4960480;28;6891;-73
2023/08/14 11:56:23;;;;;;;;;;;;;;;40.76;23.32;100303.59;4976436;28;6999;-73
2023/08/14 11:58:49;;;;;;;;;;;;;;;40.47;23.62;100297.84;4975360;28;6854;-74
2023/08/14 12:01:15;;;;;;;;;;;;;;;39.95;24.00;100296.47;4959736;28;6872;-73
2023/08/14 12:03:41;;;;;;;;;;;;;;;39.79;24.33;100291.44;4940884;28;7017;-74
2023/08/14 12:06:07;;;;;;;;;;;;;;;39.93;24.94;100289.53;4945669;28;7339;-72
2023/08/14 12:08:32;;;;;;;;;;;;;;;40.23;25.10;100288.09;4960514;28;6859;-74
2023/08/14 12:10:58;;;;;;;;;;;;;;;40.45;24.67;100281.03;4980636;28;6784;-73
2023/08/14 12:13:24;;;;;;;;;;;;;;;40.66;24.62;100278.41;4962902;28;6788;-74
2023/08/14 12:15:49;;;;;;;;;;;;;;;41.03;24.66;100277.25;4974514;28;6771;-73
2023/08/14 12:18:22;;;;;;;;;;;;;;;41.36;24.21;100264.66;4949226;28;6844;-71
2023/08/14 12:20:52;;;;;;;;;;;;;;;41.44;23.70;100261.31;4965105;28;6867;-72
2023/08/14 12:23:22;;;;;;;;;;;;;;;41.40;24.03;100267.94;4975206;28;6820;-74
2023/08/14 12:25:47;;;;;;;;;;;;;;;41.25;23.77;100262.03;4977347;28;6884;-73
2023/08/14 12:28:12;;;;;;;;;;;;;;;41.04;24.08;100260.97;4958017;28;6808;-73
2023/08/14 12:30:38;;;;;;;;;;;;;;;40.94;24.30;100251.97;4979891;28;6816;-74
2023/08/14 12:33:04;;;;;;;;;;;;;;;40.76;24.70;100260.63;4974726;28;6780;-72
2023/08/14 12:35:29;;;;;;;;;;;;;;;40.33;24.68;100259.56;4974810;28;6784;-73
2023/08/14 12:37:55;;;;;;;;;;;;;;;39.77;24.98;100254.97;4960499;28;6881;-73
2023/08/14 12:40:21;;;;;;;;;;;;;;;39.38;25.74;100233.81;4958662;28;7260;-72
2023/08/14 12:42:47;;;;;;;;;;;;;;;38.97;26.04;100241.34;4959268;28;6775;-72
2023/08/14 12:45:12;;;;;;;;;;;;;;;38.86;26.34;100221.53;4981535;28;7293;-72